createdAt,value
2023-05-14T00:00:54.512Z,11.37
2023-05-14T00:03:58.810Z,11.22
2023-05-14T00:07:01.939Z,11.17
2023-05-14T00:10:06.279Z,11.14
2023-05-14T00:13:09.218Z,11.08
2023-05-14T00:16:12.390Z,11.07
2023-05-14T00:19:15.051Z,11.06
2023-05-14T00:22:18.285Z,11.08
2023-05-14T00:25:21.079Z,11.05
2023-05-14T00:28:23.796Z,11.04
2023-05-14T00:31:26.322Z,11.02
2023-05-14T00:34:29.513Z,11.02
2023-05-14T00:37:32.740Z,11.03
2023-05-14T00:40:37.139Z,11.00
2023-05-14T00:43:39.788Z,10.98
2023-05-14T00:46:43.833Z,10.93
2023-05-14T00:49:47.239Z,10.93
2023-05-14T00:52:50.299Z,10.88
2023-05-14T00:55:53.521Z,10.87
2023-05-14T00:58:56.156Z,10.87
2023-05-14T01:01:59.009Z,10.85
2023-05-14T01:05:02.753Z,10.87
2023-05-14T01:08:32.942Z,10.85
2023-05-14T01:12:12.433Z,10.84
2023-05-14T01:15:21.864Z,10.82
2023-05-14T01:18:27.505Z,10.79
2023-05-14T01:21:44.016Z,10.76
2023-05-14T01:24:46.852Z,10.71
2023-05-14T01:28:11.851Z,10.71
2023-05-14T01:31:25.210Z,10.72
2023-05-14T01:34:31.337Z,10.74
2023-05-14T01:37:37.538Z,10.73
2023-05-14T01:40:42.461Z,10.71
2023-05-14T01:43:45.749Z,10.69
2023-05-14T01:46:48.569Z,10.71
2023-05-14T01:49:52.501Z,10.71
2023-05-14T01:52:56.725Z,10.68
2023-05-14T01:56:01.115Z,10.69
2023-05-14T01:59:03.782Z,10.68
2023-05-14T02:02:06.595Z,10.68
2023-05-14T02:05:11.330Z,10.67
2023-05-14T02:08:13.767Z,10.65
2023-05-14T02:11:16.956Z,10.65
2023-05-14T02:14:20.004Z,10.64
2023-05-14T02:17:23.182Z,10.66
2023-05-14T02:20:26.529Z,10.63
2023-05-14T02:23:40.421Z,10.65
2023-05-14T02:26:44.629Z,10.63
2023-05-14T02:29:47.263Z,10.64
2023-05-14T02:32:50.521Z,10.61
2023-05-14T02:35:53.288Z,10.60
2023-05-14T02:38:56.195Z,10.59
2023-05-14T02:41:58.652Z,10.55
2023-05-14T02:45:02.166Z,10.52
2023-05-14T02:48:06.375Z,10.52
2023-05-14T02:51:09.504Z,10.51
2023-05-14T02:54:11.947Z,10.48
2023-05-14T02:57:14.630Z,10.47
2023-05-14T03:00:18.134Z,10.46
2023-05-14T03:03:21.785Z,10.46
2023-05-14T03:06:24.947Z,10.47
2023-05-14T03:09:28.250Z,10.44
2023-05-14T03:12:30.893Z,10.42
2023-05-14T03:15:33.803Z,10.40
2023-05-14T03:18:36.932Z,10.41
2023-05-14T03:21:40.840Z,10.40
2023-05-14T03:24:43.881Z,10.41
2023-05-14T03:27:46.909Z,10.42
2023-05-14T03:30:50.585Z,10.43
2023-05-14T03:33:53.487Z,10.44
2023-05-14T03:36:57.060Z,10.46
2023-05-14T03:40:00.169Z,10.45
2023-05-14T03:43:02.793Z,10.51
2023-05-14T03:46:05.663Z,10.51
2023-05-14T03:49:09.039Z,10.53
2023-05-14T03:52:13.092Z,10.52
2023-05-14T03:55:15.763Z,10.51
2023-05-14T03:58:18.460Z,10.54
2023-05-14T04:01:21.271Z,10.57
2023-05-14T04:04:24.780Z,10.58
2023-05-14T04:07:28.956Z,10.57
2023-05-14T04:10:32.377Z,10.59
2023-05-14T04:13:35.378Z,10.58
2023-05-14T04:16:41.705Z,10.61
2023-05-14T04:19:46.452Z,10.61
2023-05-14T04:22:49.693Z,10.60
2023-05-14T04:25:52.279Z,10.62
2023-05-14T04:28:56.464Z,10.62
2023-05-14T04:32:02.988Z,10.61
2023-05-14T04:35:07.126Z,10.61
2023-05-14T04:38:11.492Z,10.60
2023-05-14T04:41:14.396Z,10.62
2023-05-14T04:44:17.985Z,10.62
2023-05-14T04:47:24.640Z,10.63
2023-05-14T04:50:27.730Z,10.64
2023-05-14T04:53:31.573Z,10.65
2023-05-14T04:56:34.535Z,10.66
2023-05-14T04:59:40.487Z,10.67
2023-05-14T05:02:43.661Z,10.64
2023-05-14T05:05:47.335Z,10.70
2023-05-14T05:08:50.208Z,10.69
2023-05-14T05:11:53.234Z,10.72
2023-05-14T05:14:58.695Z,10.71
2023-05-14T05:18:03.689Z,10.75
2023-05-14T05:21:10.547Z,10.77
2023-05-14T05:24:16.681Z,10.76
2023-05-14T05:27:21.139Z,10.80
2023-05-14T05:30:25.517Z,10.84
2023-05-14T05:33:30.121Z,10.84
2023-05-14T05:36:33.474Z,10.84
2023-05-14T05:39:36.275Z,10.84
2023-05-14T05:42:43.736Z,10.80
2023-05-14T05:45:49.408Z,10.80
2023-05-14T05:48:59.366Z,10.83
2023-05-14T05:52:04.104Z,10.80
2023-05-14T05:55:09.647Z,10.80
2023-05-14T05:58:19.458Z,10.79
2023-05-14T06:01:30.828Z,10.77
2023-05-14T06:04:34.624Z,10.76
2023-05-14T06:07:47.717Z,10.76
2023-05-14T06:10:52.181Z,10.74
2023-05-14T06:13:55.887Z,10.74
2023-05-14T06:16:59.168Z,10.74
2023-05-14T06:20:02.036Z,10.73
2023-05-14T06:23:12.490Z,10.77
2023-05-14T06:26:15.980Z,10.79
2023-05-14T06:29:19.115Z,10.78
2023-05-14T06:32:22.051Z,10.79
2023-05-14T06:35:29.494Z,10.81
2023-05-14T06:38:41.931Z,10.85
2023-05-14T06:41:46.656Z,10.90
2023-05-14T06:44:51.020Z,10.90
2023-05-14T06:47:57.658Z,10.96
2023-05-14T06:51:01.448Z,10.97
2023-05-14T06:54:07.941Z,11.02
2023-05-14T06:57:14.710Z,11.07
2023-05-14T07:00:24.289Z,11.07
2023-05-14T07:03:30.430Z,11.16
2023-05-14T07:06:39.948Z,11.23
2023-05-14T07:09:46.689Z,11.37
2023-05-14T07:12:50.465Z,11.46
2023-05-14T07:16:00.690Z,11.51
2023-05-14T07:19:13.540Z,11.50
2023-05-14T07:22:19.034Z,11.63
2023-05-14T07:25:22.387Z,11.72
2023-05-14T07:28:26.371Z,11.82
2023-05-14T07:31:34.393Z,11.99
2023-05-14T07:34:38.943Z,12.04
2023-05-14T07:37:53.398Z,11.96
2023-05-14T07:40:56.410Z,11.88
2023-05-14T07:44:04.585Z,11.88
2023-05-14T07:47:12.513Z,12.00
2023-05-14T07:50:26.089Z,12.05
2023-05-14T07:53:33.508Z,12.05
2023-05-14T07:56:41.956Z,12.00
2023-05-14T07:59:52.353Z,12.14
2023-05-14T08:03:00.628Z,12.28
2023-05-14T08:06:19.410Z,12.33
2023-05-14T08:09:22.867Z,12.52
2023-05-14T08:12:38.457Z,12.55
2023-05-14T08:15:55.680Z,12.45
2023-05-14T08:19:00.124Z,12.53
2023-05-14T08:22:03.990Z,12.38
2023-05-14T08:25:13.875Z,12.42
2023-05-14T08:28:20.453Z,12.26
2023-05-14T08:31:24.570Z,12.18
2023-05-14T08:34:31.648Z,12.25
2023-05-14T08:37:35.495Z,12.27
2023-05-14T08:40:39.887Z,12.28
2023-05-14T08:44:12.973Z,12.22
2023-05-14T08:47:31.526Z,12.28
2023-05-14T08:50:43.318Z,12.32
2023-05-14T08:53:49.619Z,12.42
2023-05-14T08:56:57.793Z,12.35
2023-05-14T09:00:12.102Z,12.44
2023-05-14T09:03:22.580Z,12.55
2023-05-14T09:06:43.969Z,12.68
2023-05-14T09:09:51.108Z,12.64
2023-05-14T09:13:01.476Z,12.50
2023-05-14T09:16:05.767Z,12.56
2023-05-14T09:19:09.548Z,12.57
2023-05-14T09:22:19.384Z,12.46
2023-05-14T09:25:28.464Z,12.49
2023-05-14T09:28:42.687Z,12.42
2023-05-14T09:31:59.483Z,12.47
2023-05-14T09:35:12.741Z,12.37
2023-05-14T09:38:24.409Z,12.46
2023-05-14T09:41:28.029Z,12.52
2023-05-14T09:44:33.161Z,12.55
2023-05-14T09:47:53.708Z,12.65
2023-05-14T09:51:06.581Z,12.60
2023-05-14T09:54:10.226Z,12.63
2023-05-14T09:57:31.485Z,12.68
2023-05-14T10:00:38.470Z,12.67
2023-05-14T10:03:42.008Z,12.56
2023-05-14T10:06:52.613Z,12.47
2023-05-14T10:10:09.516Z,12.49
2023-05-14T10:13:32.331Z,12.46
2023-05-14T10:16:49.482Z,12.52
2023-05-14T10:19:58.870Z,12.49
2023-05-14T10:23:09.686Z,12.44
2023-05-14T10:26:16.355Z,12.49
2023-05-14T10:29:39.423Z,12.56
2023-05-14T10:32:49.952Z,12.64
2023-05-14T10:36:14.369Z,12.60
2023-05-14T10:39:18.968Z,12.68
2023-05-14T10:42:36.153Z,12.72
2023-05-14T10:45:57.327Z,12.75
2023-05-14T10:49:10.518Z,12.77
2023-05-14T10:52:20.449Z,12.78
2023-05-14T10:55:34.413Z,12.80
2023-05-14T10:58:40.880Z,12.82
2023-05-14T11:01:46.898Z,12.88
2023-05-14T11:05:00.208Z,12.82
2023-05-14T11:08:14.479Z,12.85
2023-05-14T11:11:26.378Z,12.84
2023-05-14T11:14:47.479Z,12.77
2023-05-14T11:17:53.832Z,12.78
2023-05-14T11:21:05.702Z,12.75
2023-05-14T11:24:09.920Z,12.74
2023-05-14T11:27:23.434Z,12.71
2023-05-14T11:30:32.343Z,12.74
2023-05-14T11:33:48.764Z,12.69
2023-05-14T11:37:00.373Z,12.70
2023-05-14T11:40:20.448Z,12.67
2023-05-14T11:43:35.735Z,12.64
2023-05-14T11:46:55.048Z,12.60
2023-05-14T11:50:19.368Z,12.57
2023-05-14T11:53:32.541Z,12.54
2023-05-14T11:56:37.821Z,12.54
2023-05-14T11:59:45.773Z,12.50
2023-05-14T12:03:03.619Z,12.53
2023-05-14T12:06:13.935Z,12.52
2023-05-14T12:09:24.855Z,12.50
2023-05-14T12:12:48.331Z,12.48
2023-05-14T12:16:18.435Z,12.41
2023-05-14T12:19:29.569Z,12.44
2023-05-14T12:22:35.123Z,12.44
2023-05-14T12:25:53.010Z,12.44
2023-05-14T12:29:01.759Z,12.44
2023-05-14T12:32:16.654Z,12.37
2023-05-14T12:35:28.398Z,12.41
2023-05-14T12:38:35.434Z,12.34
2023-05-14T12:41:52.846Z,12.35
2023-05-14T12:45:05.349Z,12.33
2023-05-14T12:48:15.701Z,12.38
2023-05-14T12:51:32.792Z,12.41
2023-05-14T12:54:47.453Z,12.35
2023-05-14T12:58:04.636Z,12.37
2023-05-14T13:01:08.010Z,12.37
2023-05-14T13:04:15.711Z,12.36
2023-05-14T13:07:25.909Z,12.37
2023-05-14T13:10:37.589Z,12.34
2023-05-14T13:13:44.504Z,12.34
2023-05-14T13:16:51.756Z,12.37
2023-05-14T13:19:56.120Z,12.36
2023-05-14T13:23:12.429Z,12.32
2023-05-14T13:26:24.430Z,12.27
2023-05-14T13:29:41.410Z,12.30
2023-05-14T13:32:48.479Z,12.28
2023-05-14T13:35:58.667Z,12.33
2023-05-14T13:39:02.619Z,12.35
2023-05-14T13:42:08.714Z,12.34
2023-05-14T13:45:18.941Z,12.33
2023-05-14T13:48:26.286Z,12.32
2023-05-14T13:51:54.507Z,12.33
2023-05-14T13:54:58.433Z,12.37
2023-05-14T13:58:10.644Z,12.37
2023-05-14T14:01:20.156Z,12.36
2023-05-14T14:04:30.451Z,12.34
2023-05-14T14:07:35.831Z,12.30
2023-05-14T14:10:42.714Z,12.26
2023-05-14T14:13:52.827Z,12.18
2023-05-14T14:17:04.520Z,12.12
2023-05-14T14:20:13.947Z,12.03
2023-05-14T14:23:19.750Z,11.97
2023-05-14T14:26:37.538Z,11.95
2023-05-14T14:29:41.417Z,11.95
2023-05-14T14:32:48.867Z,11.96
2023-05-14T14:36:03.458Z,11.97
2023-05-14T14:39:19.885Z,11.95
2023-05-14T14:42:26.594Z,11.97
2023-05-14T14:45:31.001Z,11.93
2023-05-14T14:48:39.338Z,11.92
2023-05-14T14:51:44.458Z,11.87
2023-05-14T14:54:51.574Z,11.84
2023-05-14T14:57:54.441Z,11.80
2023-05-14T15:01:08.002Z,11.80
2023-05-14T15:04:12.825Z,11.80
2023-05-14T15:07:22.913Z,11.81
2023-05-14T15:10:43.519Z,11.76
2023-05-14T15:13:52.757Z,11.77
2023-05-14T15:17:01.521Z,11.75
2023-05-14T15:20:13.648Z,11.74
2023-05-14T15:23:29.508Z,11.75
2023-05-14T15:26:39.572Z,11.70
2023-05-14T15:29:43.427Z,11.68
2023-05-14T15:32:47.066Z,11.65
2023-05-14T15:35:51.462Z,11.63
2023-05-14T15:39:03.461Z,11.61
2023-05-14T15:42:08.064Z,11.60
2023-05-14T15:45:14.403Z,11.58
2023-05-14T15:48:20.041Z,11.58
2023-05-14T15:51:28.450Z,11.58
2023-05-14T15:54:37.631Z,11.56
2023-05-14T15:57:49.161Z,11.57
2023-05-14T16:00:54.930Z,11.55
2023-05-14T16:03:59.825Z,11.56
2023-05-14T16:07:11.636Z,11.57
2023-05-14T16:10:21.763Z,11.57
2023-05-14T16:13:27.981Z,11.59
2023-05-14T16:16:38.084Z,11.60
2023-05-14T16:19:43.623Z,11.58
2023-05-14T16:23:05.870Z,11.58
2023-05-14T16:26:17.540Z,11.57
2023-05-14T16:29:23.014Z,11.59
2023-05-14T16:32:32.773Z,11.59
2023-05-14T16:35:41.638Z,11.58
2023-05-14T16:39:06.782Z,11.58
2023-05-14T16:42:28.335Z,11.56
2023-05-14T16:45:47.365Z,11.58
2023-05-14T16:49:02.589Z,11.59
2023-05-14T16:52:15.344Z,11.61
2023-05-14T16:55:25.503Z,11.63
2023-05-14T16:58:40.651Z,11.64
2023-05-14T17:01:57.476Z,11.66
2023-05-14T17:05:07.484Z,11.66
2023-05-14T17:08:19.384Z,11.67
2023-05-14T17:11:26.425Z,11.62
2023-05-14T17:14:47.355Z,11.64
2023-05-14T17:18:05.498Z,11.66
2023-05-14T17:21:16.840Z,11.66
2023-05-14T17:24:24.415Z,11.70
2023-05-14T17:27:37.448Z,11.69
2023-05-14T17:30:59.423Z,11.73
2023-05-14T17:34:10.712Z,11.75
2023-05-14T17:37:24.619Z,11.76
2023-05-14T17:40:28.600Z,11.74
2023-05-14T17:43:37.428Z,11.75
2023-05-14T17:46:50.065Z,11.74
2023-05-14T17:50:05.417Z,11.78
2023-05-14T17:53:15.347Z,11.75
2023-05-14T17:56:20.419Z,11.73
2023-05-14T17:59:29.444Z,11.72
2023-05-14T18:02:35.441Z,11.71
2023-05-14T18:05:39.703Z,11.75
2023-05-14T18:08:45.405Z,11.76
2023-05-14T18:12:08.336Z,11.77
2023-05-14T18:15:22.464Z,11.75
2023-05-14T18:18:35.329Z,11.76
2023-05-14T18:21:38.758Z,11.74
2023-05-14T18:24:51.577Z,11.77
2023-05-14T18:27:57.717Z,11.75
2023-05-14T18:31:12.589Z,11.76
2023-05-14T18:34:19.986Z,11.78
2023-05-14T18:37:24.449Z,11.79
2023-05-14T18:40:46.448Z,11.79
2023-05-14T18:43:58.109Z,11.78
2023-05-14T18:47:21.395Z,11.79
2023-05-14T18:50:33.484Z,11.82
2023-05-14T18:53:38.361Z,11.83
2023-05-14T18:56:47.777Z,11.86
2023-05-14T18:59:59.630Z,11.88
2023-05-14T19:03:08.072Z,11.87
2023-05-14T19:06:18.945Z,11.92
2023-05-14T19:09:27.685Z,11.92
2023-05-14T19:12:41.564Z,11.93
2023-05-14T19:15:51.765Z,11.92
2023-05-14T19:18:57.690Z,11.94
2023-05-14T19:22:04.690Z,11.94
2023-05-14T19:25:11.642Z,11.95
2023-05-14T19:28:16.824Z,11.92
2023-05-14T19:31:19.910Z,11.92
2023-05-14T19:34:42.445Z,11.94
2023-05-14T19:37:47.439Z,11.94
2023-05-14T19:40:51.324Z,11.97
2023-05-14T19:43:56.278Z,11.99
2023-05-14T19:47:01.622Z,12.01
2023-05-14T19:50:09.616Z,12.00
2023-05-14T19:53:16.459Z,12.00
2023-05-14T19:56:28.433Z,11.97
2023-05-14T19:59:44.678Z,11.98
2023-05-14T20:02:47.959Z,11.97
2023-05-14T20:05:56.587Z,11.97
2023-05-14T20:09:01.935Z,11.96
2023-05-14T20:12:05.580Z,11.95
2023-05-14T20:15:11.017Z,11.97
2023-05-14T20:18:19.641Z,12.00
2023-05-14T20:21:30.799Z,12.03
2023-05-14T20:24:37.883Z,12.02
2023-05-14T20:27:46.812Z,12.00
2023-05-14T20:30:49.886Z,12.09
2023-05-14T20:33:54.898Z,12.19
2023-05-14T20:36:58.362Z,12.35
2023-05-14T20:40:06.741Z,12.40
2023-05-14T20:43:09.844Z,12.45
2023-05-14T20:46:20.797Z,12.47
2023-05-14T20:49:25.780Z,12.42
2023-05-14T20:52:29.110Z,12.36
2023-05-14T20:55:33.607Z,12.33
2023-05-14T20:58:36.313Z,12.28
2023-05-14T21:01:39.124Z,12.26
2023-05-14T21:04:42.167Z,12.23
2023-05-14T21:07:48.820Z,12.20
2023-05-14T21:10:54.962Z,12.18
2023-05-14T21:13:58.405Z,12.14
2023-05-14T21:17:00.982Z,12.12
2023-05-14T21:20:07.578Z,12.10
2023-05-14T21:23:12.828Z,12.11
2023-05-14T21:26:15.928Z,12.10
2023-05-14T21:29:22.576Z,12.10
2023-05-14T21:32:31.386Z,12.09
2023-05-14T21:35:34.976Z,12.09
2023-05-14T21:38:38.731Z,12.07
2023-05-14T21:41:41.699Z,12.07
2023-05-14T21:44:45.027Z,12.10
2023-05-14T21:47:48.632Z,12.09
2023-05-14T21:50:54.379Z,12.09
2023-05-14T21:54:01.521Z,12.10
2023-05-14T21:57:05.052Z,12.09
2023-05-14T22:00:13.070Z,12.12
2023-05-14T22:03:19.601Z,12.08
2023-05-14T22:06:23.815Z,12.09
2023-05-14T22:09:26.725Z,12.11
2023-05-14T22:12:29.442Z,12.10
2023-05-14T22:15:38.811Z,12.14
2023-05-14T22:18:42.736Z,12.16
2023-05-14T22:21:46.530Z,12.20
2023-05-14T22:24:49.826Z,12.18
2023-05-14T22:27:53.098Z,12.18
2023-05-14T22:30:56.548Z,12.18
2023-05-14T22:34:06.431Z,12.18
2023-05-14T22:37:09.467Z,12.17
2023-05-14T22:40:13.686Z,12.19
2023-05-14T22:43:16.164Z,12.20
2023-05-14T22:46:22.894Z,12.22
2023-05-14T22:49:26.488Z,12.22
2023-05-14T22:52:29.385Z,12.20
2023-05-14T22:55:31.824Z,12.18
2023-05-14T22:58:34.921Z,12.18
2023-05-14T23:01:38.094Z,12.19
2023-05-14T23:04:40.864Z,12.17
2023-05-14T23:07:43.789Z,12.17
2023-05-14T23:10:46.694Z,12.18
2023-05-14T23:13:49.462Z,12.15
2023-05-14T23:16:52.194Z,12.15
2023-05-14T23:19:54.929Z,12.14
2023-05-14T23:22:57.748Z,12.12
2023-05-14T23:26:00.399Z,12.10
2023-05-14T23:29:05.356Z,12.10
2023-05-14T23:32:09.115Z,12.09
2023-05-14T23:35:11.964Z,12.07
2023-05-14T23:38:14.737Z,12.06
2023-05-14T23:41:17.445Z,12.06
2023-05-14T23:44:20.650Z,12.07
2023-05-14T23:47:23.628Z,12.07
2023-05-14T23:50:26.952Z,12.07
2023-05-14T23:53:29.616Z,12.06
2023-05-14T23:56:32.214Z,12.05
2023-05-14T23:59:35.679Z,12.04
